Home > Products > Valid Products > TAF

000
FTUS43 KGID 281724
TAFGRI
TAF
KGRI 281724Z 2818/0118 19014KT P6SM SCT015 BKN045
      TEMPO 2818/2820 4SM -SN BR BKN015
     FM010000 20006KT P6SM FEW015 SCT120
     FM010900 22006KT P6SM BKN035
     FM011400 29008KT P6SM BKN020=



000
FTUS43 KGID 281724
TAFGRI
TAF
KGRI 281724Z 2818/0118 19014KT P6SM SCT015 BKN045
      TEMPO 2818/2820 4SM -SN BR BKN015
     FM010000 20006KT P6SM FEW015 SCT120
     FM010900 22006KT P6SM BKN035
     FM011400 29008KT P6SM BKN020=



000
FTUS43 KGID 281521 AAA
TAFGRI
TAF AMD
KGRI 281521Z 2815/0112 18012KT 6SM BR SCT015 BKN060
      TEMPO 2815/2818 5SM BR BKN015
     FM010000 VRB06KT P6SM BKN020=



000
FTUS43 KGID 281521 AAA
TAFGRI
TAF AMD
KGRI 281521Z 2815/0112 18012KT 6SM BR SCT015 BKN060
      TEMPO 2815/2818 5SM BR BKN015
     FM010000 VRB06KT P6SM BKN020=



000
FTUS43 KGID 281121
TAFGRI
TAF
KGRI 281121Z 2812/0112 17010KT P6SM SCT020 SCT150
     FM281500 18012KT P6SM BKN020
     FM010000 VRB06KT P6SM BKN020=



000
FTUS43 KGID 281121
TAFGRI
TAF
KGRI 281121Z 2812/0112 17010KT P6SM SCT020 SCT150
     FM281500 18012KT P6SM BKN020
     FM010000 VRB06KT P6SM BKN020=



000
FTUS43 KGID 280529
TAFGRI
TAF
KGRI 280529Z 2806/0106 17010KT P6SM SCT150
     FM281500 18012KT P6SM BKN020
     FM010000 VRB06KT P6SM OVC020=



000
FTUS43 KGID 280529
TAFGRI
TAF
KGRI 280529Z 2806/0106 17010KT P6SM SCT150
     FM281500 18012KT P6SM BKN020
     FM010000 VRB06KT P6SM OVC020=



000
FTUS43 KGID 272331
TAFGRI
TAF
KGRI 272331Z 2800/2824 17010KT P6SM FEW120
     FM280800 16009KT P6SM SCT030 OVC050
     FM281200 17012KT P6SM SCT015 BKN025=



000
FTUS43 KGID 272331
TAFGRI
TAF
KGRI 272331Z 2800/2824 17010KT P6SM FEW120
     FM280800 16009KT P6SM SCT030 OVC050
     FM281200 17012KT P6SM SCT015 BKN025=



000
FTUS43 KGID 271724
TAFGRI
TAF
KGRI 271724Z 2718/2818 16010KT P6SM FEW070 SCT120
     FM280600 16009KT P6SM SCT030 OVC050
     FM281200 17012KT P6SM SCT015 BKN025=



000
FTUS43 KGID 271724
TAFGRI
TAF
KGRI 271724Z 2718/2818 16010KT P6SM FEW070 SCT120
     FM280600 16009KT P6SM SCT030 OVC050
     FM281200 17012KT P6SM SCT015 BKN025=



000
FTUS43 KGID 271133
TAFGRI
TAF
KGRI 271133Z 2712/2812 VRB03KT P6SM SCT120
     FM271900 17007KT P6SM SCT120
     FM281000 16010KT P6SM OVC050=



000
FTUS43 KGID 271133
TAFGRI
TAF
KGRI 271133Z 2712/2812 VRB03KT P6SM SCT120
     FM271900 17007KT P6SM SCT120
     FM281000 16010KT P6SM OVC050=



000
FTUS43 KGID 270536
TAFGRI
TAF
KGRI 270536Z 2706/2806 VRB03KT P6SM SKC
     FM271200 17007KT P6SM FEW200=



000
FTUS43 KGID 270536
TAFGRI
TAF
KGRI 270536Z 2706/2806 VRB03KT P6SM SKC
     FM271200 17007KT P6SM FEW200=



000
FTUS43 KGID 262320
TAFGRI
TAF
KGRI 262320Z 2700/2724 02011KT P6SM SKC
     FM270600 VRB05KT P6SM SCT120
     FM271300 16008KT P6SM SCT040 BKN120=



000
FTUS43 KGID 262320
TAFGRI
TAF
KGRI 262320Z 2700/2724 02011KT P6SM SKC
     FM270600 VRB05KT P6SM SCT120
     FM271300 16008KT P6SM SCT040 BKN120=



000
FTUS43 KGID 262320
TAFGRI
TAF
KGRI 262320Z 2700/2724 02011KT P6SM SKC
     FM270600 VRB05KT P6SM SCT120
     FM271300 16008KT P6SM SCT040 BKN120=



000
FTUS43 KGID 262320
TAFGRI
TAF
KGRI 262320Z 2700/2724 02011KT P6SM SKC
     FM270600 VRB05KT P6SM SCT120
     FM271300 16008KT P6SM SCT040 BKN120=



000
FTUS43 KGID 261724
TAFGRI
TAF
KGRI 261724Z 2618/2718 35015G19KT P6SM FEW025
     FM270100 02010KT P6SM SKC
     FM270600 VRB05KT P6SM SKC
     FM271200 16006KT P6SM FEW150=



000
FTUS43 KGID 261724
TAFGRI
TAF
KGRI 261724Z 2618/2718 35015G19KT P6SM FEW025
     FM270100 02010KT P6SM SKC
     FM270600 VRB05KT P6SM SKC
     FM271200 16006KT P6SM FEW150=



000
FTUS43 KGID 261123
TAFGRI
TAF
KGRI 261123Z 2612/2712 35017G24KT P6SM FEW025
     FM261500 35014KT P6SM SKC
     FM270200 04004KT P6SM SKC=



000
FTUS43 KGID 260903 AAA
TAFGRI
TAF AMD
KGRI 260903Z 2609/2706 35015KT P6SM SCT020
     FM261800 35013KT P6SM SKC
     FM270100 03006KT P6SM SKC=



000
FTUS43 KGID 260903 AAA
TAFGRI
TAF AMD
KGRI 260903Z 2609/2706 35015KT P6SM SCT020
     FM261800 35013KT P6SM SKC
     FM270100 03006KT P6SM SKC=



000
FTUS43 KGID 260903 AAA
TAFGRI
TAF AMD
KGRI 260903Z 2609/2706 35015KT P6SM SCT020
     FM261800 35013KT P6SM SKC
     FM270100 03006KT P6SM SKC=



000
FTUS43 KGID 260903 AAA
TAFGRI
TAF AMD
KGRI 260903Z 2609/2706 35015KT P6SM SCT020
     FM261800 35013KT P6SM SKC
     FM270100 03006KT P6SM SKC=



000
FTUS43 KGID 260520
TAFGRI
TAF
KGRI 260520Z 2606/2706 36020G28KT P6SM SCT020 OVC100
      TEMPO 2606/2609 BKN020
     FM261200 35015KT P6SM SCT020
     FM261800 35013KT P6SM SKC
     FM270100 03006KT P6SM SKC=



000
FTUS43 KGID 260316 AAA
TAFGRI
TAF AMD
KGRI 260316Z 2603/2624 36018G25KT P6SM OVC025
     FM260600 36015G24KT P6SM BKN025
     FM261000 35015KT P6SM SCT025
     FM261600 36015KT P6SM SCT040=



000
FTUS43 KGID 252329
TAFGRI
TAF
KGRI 252329Z 2600/2624 36025G33KT P6SM OVC020
     FM260600 36020G27KT P6SM OVC025
     FM261000 35018G24KT P6SM SCT025
     FM261600 36015KT P6SM SCT040=



000
FTUS43 KGID 252329
TAFGRI
TAF
KGRI 252329Z 2600/2624 36025G33KT P6SM OVC020
     FM260600 36020G27KT P6SM OVC025
     FM261000 35018G24KT P6SM SCT025
     FM261600 36015KT P6SM SCT040=



000
FTUS43 KGID 252329
TAFGRI
TAF
KGRI 252329Z 2600/2624 36025G33KT P6SM OVC020
     FM260600 36020G27KT P6SM OVC025
     FM261000 35018G24KT P6SM SCT025
     FM261600 36015KT P6SM SCT040=



000
FTUS43 KGID 252329
TAFGRI
TAF
KGRI 252329Z 2600/2624 36025G33KT P6SM OVC020
     FM260600 36020G27KT P6SM OVC025
     FM261000 35018G24KT P6SM SCT025
     FM261600 36015KT P6SM SCT040=



    US Dept of Commerce
    National Oceanic and Atmospheric Administration
    National Weather Service
    1325 East West Highway
    Silver Spring, MD 20910
    Page Author: NWS Internet Services Team
Disclaimer
Information Quality
Credits
Glossary
Privacy Policy
Freedom of Information Act (FOIA)
About Us
Career Opportunities